Time;durP1;ratioP1;P1;durP2;ratioP2;P2;SDS_P1;SDS_P2;PMS_P1;PMS_P2;Temp;Humidity;BMP_temperature;BMP_pressure;BME280_temperature;BME280_humidity;BME280_pressure;Samples;Min_cycle;Max_cycle;Signal;HPM_P1;HPM_P2
2022/12/30 00:01:30;;;;;;;82.00;33.30;;;;;;;8.05;100.00;101134.28;5007670;28;20421;-72
2022/12/30 00:03:55;;;;;;;93.30;34.53;;;;;;;8.01;100.00;101130.31;5006472;28;20061;-72
2022/12/30 00:06:22;;;;;;;76.53;32.30;;;;;;;7.95;100.00;101125.56;5010586;28;20037;-72
2022/12/30 00:08:53;;;;;;;81.88;31.55;;;;;;;7.93;100.00;101123.06;5033283;28;20477;-72
2022/12/30 00:11:27;;;;;;;73.43;32.03;;;;;;;7.94;100.00;101118.72;5020901;28;20037;-72
2022/12/30 00:33:51;;;;;;;96.90;33.43;;;;;;;8.05;100.00;101104.91;5008667;28;20419;-72
2022/12/30 00:36:16;;;;;;;107.10;35.90;;;;;;;8.09;100.00;101095.97;5006178;28;20152;-72
2022/12/30 00:38:42;;;;;;;155.55;35.88;;;;;;;8.10;100.00;101103.66;5014158;28;20515;-72
2022/12/30 00:43:51;;;;;;;111.28;34.03;;;;;;;8.15;100.00;101105.91;5007409;28;20060;-72
2022/12/30 00:46:18;;;;;;;107.55;33.33;;;;;;;8.14;100.00;101104.25;5013199;28;20599;-72
2022/12/30 00:57:00;;;;;;;91.05;32.72;;;;;;;8.16;100.00;101116.19;4997149;28;20111;-73
2022/12/30 00:59:25;;;;;;;114.28;36.30;;;;;;;8.18;100.00;101122.09;5010630;28;20026;-72
2022/12/30 01:01:50;;;;;;;86.28;32.47;;;;;;;8.16;100.00;101125.72;5009866;28;20029;-72
2022/12/30 01:04:16;;;;;;;74.90;33.08;;;;;;;8.11;100.00;101128.66;5009980;28;20135;-72
2022/12/30 01:06:41;;;;;;;73.03;31.02;;;;;;;8.08;100.00;101123.69;5010166;28;20026;-72
2022/12/30 01:09:07;;;;;;;64.45;30.20;;;;;;;8.05;100.00;101120.50;5007627;28;20041;-73
2022/12/30 01:11:32;;;;;;;84.47;34.22;;;;;;;8.08;100.00;101136.66;5015136;28;20081;-72
2022/12/30 01:13:58;;;;;;;100.88;31.70;;;;;;;8.10;100.00;101129.59;5012291;28;20030;-72
2022/12/30 01:16:23;;;;;;;83.63;31.52;;;;;;;8.11;100.00;101126.06;5012302;28;20033;-72
2022/12/30 01:18:49;;;;;;;89.72;31.75;;;;;;;8.10;100.00;101133.97;5005822;28;20034;-72
2022/12/30 01:21:14;;;;;;;68.43;31.27;;;;;;;8.12;100.00;101137.28;5011796;28;20037;-72
2022/12/30 01:23:39;;;;;;;83.53;31.67;;;;;;;8.13;100.00;101131.97;5009042;28;20120;-72
2022/12/30 01:26:06;;;;;;;120.30;32.42;;;;;;;8.15;100.00;101137.88;5010378;28;20091;-72
2022/12/30 01:28:34;;;;;;;83.40;29.30;;;;;;;8.15;100.00;101132.69;5015623;28;20120;-72
2022/12/30 01:31:00;;;;;;;152.32;34.53;;;;;;;8.15;100.00;101137.88;5012981;28;20072;-72
2022/12/30 01:33:26;;;;;;;119.45;32.58;;;;;;;8.16;100.00;101133.53;5001653;28;20041;-71
2022/12/30 01:35:52;;;;;;;106.15;29.63;;;;;;;8.16;100.00;101129.16;5011768;28;20026;-72
2022/12/30 01:38:17;;;;;;;72.93;30.58;;;;;;;8.13;100.00;101126.78;5006040;28;20030;-72
2022/12/30 01:40:43;;;;;;;86.32;29.23;;;;;;;8.09;100.00;101127.13;5008973;28;20386;-72
2022/12/30 01:43:14;;;;;;;103.53;27.67;;;;;;;8.10;100.00;101126.19;5018151;28;20079;-72
2022/12/30 01:45:45;;;;;;;112.70;28.90;;;;;;;8.12;100.00;101132.91;5008573;28;20021;-72
2022/12/30 01:48:10;;;;;;;117.18;29.02;;;;;;;8.14;100.00;101128.44;5005502;28;20522;-72
2022/12/30 01:50:52;;;;;;;108.95;32.08;;;;;;;8.15;100.00;101131.84;5013360;28;20176;-72
2022/12/30 01:53:21;;;;;;;163.98;34.03;;;;;;;8.16;100.00;101123.13;5010768;28;20049;-72
2022/12/30 01:56:11;;;;;;;115.53;30.23;;;;;;;8.17;100.00;101127.38;5012550;28;20029;-71
2022/12/30 01:58:48;;;;;;;63.13;27.02;;;;;;;8.14;100.00;101125.00;5003605;28;20045;-72
2022/12/30 02:01:14;;;;;;;154.48;33.28;;;;;;;8.16;100.00;101138.72;5006942;28;20038;-72
2022/12/30 02:03:44;;;;;;;137.35;33.33;;;;;;;8.17;100.00;101119.59;5009727;28;20096;-72
2022/12/30 02:06:16;;;;;;;120.22;30.73;;;;;;;8.16;100.00;101129.16;5013445;28;20117;-72
2022/12/30 02:08:41;;;;;;;110.65;30.92;;;;;;;8.17;100.00;101132.56;5008814;28;20092;-72
2022/12/30 02:11:07;;;;;;;103.72;30.33;;;;;;;8.18;100.00;101127.28;5013979;28;20496;-72
2022/12/30 02:13:32;;;;;;;78.35;28.42;;;;;;;8.18;100.00;101127.28;5011347;28;20030;-71
2022/12/30 02:16:26;;;;;;;127.45;31.55;;;;;;;8.20;100.00;101135.78;5010878;28;20413;-72
2022/12/30 02:19:51;;;;;;;153.27;29.70;;;;;;;8.19;100.00;101125.50;5010438;28;20374;-72
2022/12/30 02:22:19;;;;;;;90.45;25.70;;;;;;;8.19;100.00;101131.53;5011189;28;20033;-72
2022/12/30 02:24:53;;;;;;;104.38;25.88;;;;;;;8.19;100.00;101118.56;5012209;28;20057;-72
2022/12/30 02:27:31;;;;;;;67.70;26.38;;;;;;;8.19;100.00;101123.75;5013484;28;20120;-72
2022/12/30 02:30:06;;;;;;;103.95;32.53;;;;;;;8.13;100.00;101115.56;5014031;28;20443;-72
2022/12/30 02:33:01;;;;;;;88.47;30.42;;;;;;;8.08;100.00;101105.53;5016776;28;20114;-72
2022/12/30 02:35:33;;;;;;;106.72;32.55;;;;;;;8.06;100.00;101104.81;5009427;28;20056;-72
2022/12/30 02:38:10;;;;;;;98.80;34.42;;;;;;;8.03;100.00;101099.03;5009331;28;20056;-71
2022/12/30 02:46:30;;;;;;;110.55;36.00;;;;;;;7.97;100.00;101089.94;5011098;28;20064;-72
2022/12/30 02:48:57;;;;;;;125.82;36.95;;;;;;;7.98;100.00;101087.22;5012515;28;20084;-72
2022/12/30 02:54:09;;;;;;;106.00;33.75;;;;;;;8.04;100.00;101093.72;5011511;28;20056;-72
2022/12/30 02:56:34;;;;;;;114.00;32.70;;;;;;;8.09;100.00;101093.38;5007801;28;20058;-72
2022/12/30 03:04:51;;;;;;;124.90;30.55;;;;;;;8.15;100.00;101096.34;5011216;28;20155;-73
2022/12/30 03:07:26;;;;;;;131.10;32.80;;;;;;;8.17;100.00;101088.44;5013936;28;20092;-72
2022/12/30 03:13:52;;;;;;;92.80;29.70;;;;;;;8.15;100.00;101085.13;5005043;28;20096;-72
2022/12/30 03:16:31;;;;;;;86.88;32.25;;;;;;;8.16;100.00;101092.81;4999944;28;20046;-72
2022/12/30 03:19:00;;;;;;;85.85;30.48;;;;;;;8.20;100.00;101093.41;5008316;28;20049;-72
2022/12/30 03:21:29;;;;;;;124.82;30.83;;;;;;;8.22;100.00;101087.16;5008918;28;20042;-72
2022/12/30 03:27:04;;;;;;;100.68;32.53;;;;;;;8.20;100.00;101103.81;5009454;28;20045;-73
2022/12/30 03:29:39;;;;;;;84.32;32.83;;;;;;;8.15;100.00;101095.53;5006937;28;20163;-73
2022/12/30 03:32:06;;;;;;;115.57;33.40;;;;;;;8.16;100.00;101097.19;5001217;28;20084;-73
2022/12/30 03:34:33;;;;;;;120.28;34.42;;;;;;;8.18;100.00;101093.53;5006980;28;20041;-72
2022/12/30 03:37:07;;;;;;;95.95;33.03;;;;;;;8.20;100.00;101102.03;5008565;28;20041;-73
2022/12/30 03:39:37;;;;;;;124.90;32.47;;;;;;;8.22;100.00;101102.75;5009953;28;20042;-73
2022/12/30 03:42:04;;;;;;;103.30;35.45;;;;;;;8.20;100.00;101101.22;5004943;28;20029;-73
2022/12/30 03:44:31;;;;;;;91.78;35.22;;;;;;;8.12;100.00;101095.75;5006868;28;20401;-73
2022/12/30 03:46:57;;;;;;;88.55;34.28;;;;;;;8.09;100.00;101102.00;5004880;28;20018;-73
2022/12/30 03:49:22;;;;;;;99.95;32.92;;;;;;;8.10;100.00;101103.66;4991479;28;20394;-73
2022/12/30 03:51:48;;;;;;;90.22;32.47;;;;;;;8.15;100.00;101100.72;4997380;28;20034;-73
2022/12/30 03:54:14;;;;;;;77.93;33.40;;;;;;;8.17;100.00;101093.63;4998796;28;20053;-73
2022/12/30 03:56:39;;;;;;;90.93;32.35;;;;;;;8.19;100.00;101097.78;5011435;28;20065;-73
2022/12/30 03:59:04;;;;;;;77.07;31.45;;;;;;;8.19;100.00;101102.97;5013754;28;20030;-73
2022/12/30 04:01:30;;;;;;;84.97;29.65;;;;;;;8.16;100.00;101099.78;5011468;28;20056;-73
2022/12/30 04:03:55;;;;;;;80.30;30.55;;;;;;;8.13;100.00;101092.22;5010336;28;20030;-73
2022/12/30 04:06:21;;;;;;;96.55;30.83;;;;;;;8.12;100.00;101095.75;5005175;28;20470;-73
2022/12/30 04:08:46;;;;;;;84.32;30.55;;;;;;;8.11;100.00;101094.91;5011931;28;20034;-73
2022/12/30 04:11:12;;;;;;;78.03;29.83;;;;;;;8.13;100.00;101087.03;5011978;28;20112;-73
2022/12/30 04:13:37;;;;;;;70.47;29.52;;;;;;;8.13;100.00;101090.44;5008369;28;20033;-73
2022/12/30 04:16:03;;;;;;;71.22;28.33;;;;;;;8.15;100.00;101095.53;5007130;28;20036;-73
2022/12/30 04:18:28;;;;;;;86.95;29.42;;;;;;;8.16;100.00;101087.63;5015103;28;20389;-73
2022/12/30 04:20:54;;;;;;;68.93;25.05;;;;;;;8.18;100.00;101084.91;5008701;28;20034;-73
2022/12/30 04:23:19;;;;;;;93.13;27.02;;;;;;;8.19;100.00;101087.41;5010224;28;20103;-72
2022/12/30 04:25:45;;;;;;;96.70;29.13;;;;;;;8.20;100.00;101083.88;5007261;28;20045;-73
2022/12/30 04:28:10;;;;;;;70.20;25.73;;;;;;;8.23;100.00;101083.63;5009127;28;20069;-72
2022/12/30 04:30:36;;;;;;;137.07;30.35;;;;;;;8.25;100.00;101075.72;5005490;28;20037;-73
2022/12/30 04:33:02;;;;;;;82.10;29.42;;;;;;;8.24;100.00;101076.66;5003462;28;20560;-72
2022/12/30 04:35:28;;;;;;;81.65;26.92;;;;;;;8.25;100.00;101086.94;5005190;28;20041;-73
2022/12/30 04:37:53;;;;;;;82.53;26.65;;;;;;;8.27;100.00;101086.84;5009559;28;20030;-72
2022/12/30 04:40:19;;;;;;;82.22;26.52;;;;;;;8.27;100.00;101068.66;5008439;28;20029;-73
2022/12/30 04:42:44;;;;;;;104.07;28.15;;;;;;;8.27;100.00;101077.28;5007281;28;20034;-72
2022/12/30 04:45:10;;;;;;;148.38;30.52;;;;;;;8.26;100.00;101080.81;5008736;28;20116;-72
2022/12/30 04:47:36;;;;;;;75.15;26.80;;;;;;;8.23;100.00;101083.63;5004818;28;20022;-72
2022/12/30 04:50:01;;;;;;;71.32;28.05;;;;;;;8.19;100.00;101077.00;5015739;28;20032;-72
2022/12/30 04:52:27;;;;;;;77.03;27.15;;;;;;;8.18;100.00;101080.56;5007284;28;20164;-73
2022/12/30 04:54:52;;;;;;;97.72;27.80;;;;;;;8.20;100.00;101076.06;5012145;28;20026;-73
2022/12/30 04:57:18;;;;;;;75.20;27.13;;;;;;;8.23;100.00;101072.44;5009889;28;20057;-73
2022/12/30 04:59:44;;;;;;;67.47;26.25;;;;;;;8.22;100.00;101089.78;5000197;28;20034;-73
2022/12/30 05:02:09;;;;;;;61.35;24.98;;;;;;;8.21;100.00;101090.72;5009950;28;20033;-73
2022/12/30 05:04:35;;;;;;;76.65;27.05;;;;;;;8.24;100.00;101102.63;5013701;28;20453;-73
2022/12/30 05:07:01;;;;;;;66.05;25.00;;;;;;;8.24;100.00;101098.28;5010539;28;20053;-72
2022/12/30 05:09:27;;;;;;;101.85;27.42;;;;;;;8.26;100.00;101104.19;5010469;28;20029;-73
2022/12/30 05:11:52;;;;;;;93.07;26.73;;;;;;;8.28;100.00;101097.09;5012211;28;20052;-72
2022/12/30 05:14:18;;;;;;;59.85;23.98;;;;;;;8.27;100.00;101100.63;5017130;28;20022;-72
2022/12/30 05:16:43;;;;;;;71.43;24.70;;;;;;;8.26;100.00;101095.56;5008762;28;20030;-72
2022/12/30 05:19:09;;;;;;;82.80;25.95;;;;;;;8.26;100.00;101105.94;5011468;28;20030;-72
2022/12/30 05:21:34;;;;;;;51.60;23.60;;;;;;;8.27;100.00;101105.00;5008609;28;20088;-73
2022/12/30 05:26:43;;;;;;;87.63;24.33;;;;;;;8.26;100.00;101093.78;5009497;28;20054;-73
2022/12/30 05:29:09;;;;;;;74.72;24.10;;;;;;;8.28;100.00;101099.69;5012800;28;20041;-72
2022/12/30 05:31:34;;;;;;;50.80;21.08;;;;;;;8.29;100.00;101105.72;5008481;28;20034;-73
2022/12/30 05:34:00;;;;;;;58.35;21.60;;;;;;;8.30;100.00;101105.59;5008730;28;20036;-73
2022/12/30 05:36:25;;;;;;;59.88;21.30;;;;;;;8.33;100.00;101104.59;5009241;28;20061;-73
2022/12/30 05:38:50;;;;;;;54.05;21.25;;;;;;;8.35;100.00;101107.91;5009255;28;20066;-72
2022/12/30 05:41:16;;;;;;;47.28;21.73;;;;;;;8.32;100.00;101106.34;5010776;28;20042;-73
2022/12/30 05:43:41;;;;;;;53.72;21.08;;;;;;;8.35;100.00;101112.25;5021844;28;20026;-73
2022/12/30 05:46:07;;;;;;;50.83;22.38;;;;;;;8.34;100.00;101110.59;5012581;28;20022;-73
2022/12/30 05:48:32;;;;;;;53.88;21.23;;;;;;;8.35;100.00;101118.28;5012677;28;20068;-73
2022/12/30 05:50:58;;;;;;;46.15;20.65;;;;;;;8.34;100.00;101126.19;5016517;28;20092;-72
2022/12/30 05:53:23;;;;;;;56.10;22.55;;;;;;;8.31;100.00;101128.03;5017933;28;20121;-73
2022/12/30 05:55:50;;;;;;;48.20;22.42;;;;;;;8.32;100.00;101123.66;5012549;28;20072;-73
2022/12/30 05:58:15;;;;;;;47.20;21.70;;;;;;;8.33;100.00;101122.75;5012197;28;20061;-73
2022/12/30 06:00:41;;;;;;;53.58;20.48;;;;;;;8.36;100.00;101134.69;5018586;28;20084;-74
2022/12/30 06:03:06;;;;;;;63.42;22.15;;;;;;;8.39;100.00;101130.09;5012446;28;20557;-74
2022/12/30 06:05:32;;;;;;;48.60;22.00;;;;;;;8.38;100.00;101130.22;5012221;28;20045;-74
2022/12/30 06:07:57;;;;;;;52.75;21.67;;;;;;;8.34;100.00;101131.38;5011528;28;20108;-73
2022/12/30 06:10:22;;;;;;;56.53;21.55;;;;;;;8.32;100.00;101118.47;5012701;28;20111;-73
2022/12/30 06:12:48;;;;;;;53.97;20.65;;;;;;;8.32;100.00;101126.25;5016540;28;20465;-73
2022/12/30 06:15:13;;;;;;;52.50;22.02;;;;;;;8.32;100.00;101129.72;5010112;28;20033;-74
2022/12/30 06:17:39;;;;;;;53.75;20.95;;;;;;;8.36;100.00;101138.09;5010591;28;20034;-74
2022/12/30 06:20:05;;;;;;;55.85;23.73;;;;;;;8.36;100.00;101139.88;5017798;28;20136;-73
2022/12/30 06:22:30;;;;;;;61.60;27.85;;;;;;;8.38;100.00;101138.00;5012048;28;20418;-74
2022/12/30 06:24:56;;;;;;;59.20;26.45;;;;;;;8.41;100.00;101138.59;5015054;28;20062;-74
2022/12/30 06:27:21;;;;;;;50.80;23.25;;;;;;;8.45;100.00;101136.59;5010416;28;20036;-73
2022/12/30 06:29:48;;;;;;;56.72;24.60;;;;;;;8.46;100.00;101133.06;5013465;28;20111;-73
2022/12/30 06:32:14;;;;;;;49.53;21.15;;;;;;;8.48;100.00;101134.59;5016460;28;20042;-73
2022/12/30 06:34:39;;;;;;;48.60;22.10;;;;;;;8.48;100.00;101128.59;5019169;28;20029;-73
2022/12/30 06:37:05;;;;;;;54.10;22.80;;;;;;;8.48;100.00;101128.59;5015017;28;20442;-73
2022/12/30 06:39:30;;;;;;;49.47;21.88;;;;;;;8.49;100.00;101135.44;5009844;28;20492;-73
2022/12/30 06:41:56;;;;;;;52.70;23.10;;;;;;;8.49;100.00;101133.66;5018083;28;20025;-73
2022/12/30 06:44:21;;;;;;;61.45;22.83;;;;;;;8.51;100.00;101128.31;5008420;28;20406;-73
2022/12/30 06:46:46;;;;;;;84.32;23.40;;;;;;;8.54;100.00;101133.28;5017605;28;20025;-73
2022/12/30 06:49:12;;;;;;;55.80;21.05;;;;;;;8.53;100.00;101132.47;5012786;28;20047;-73
2022/12/30 06:51:37;;;;;;;79.55;22.02;;;;;;;8.54;100.00;101139.31;5012996;28;20026;-73
2022/12/30 06:54:03;;;;;;;67.03;22.52;;;;;;;8.55;100.00;101145.34;5011817;28;20029;-73
2022/12/30 06:56:29;;;;;;;59.67;23.45;;;;;;;8.54;100.00;101152.31;5012050;28;20058;-73
2022/12/30 06:58:55;;;;;;;60.08;23.20;;;;;;;8.52;100.00;101153.34;5010218;28;20137;-73
2022/12/30 07:01:20;;;;;;;46.67;22.33;;;;;;;8.51;100.00;101149.09;5011875;28;20128;-73
2022/12/30 07:03:46;;;;;;;57.63;24.40;;;;;;;8.50;100.00;101157.88;5017591;28;20038;-73
2022/12/30 07:06:11;;;;;;;62.00;23.17;;;;;;;8.48;100.00;101159.75;5016857;28;20021;-73
2022/12/30 07:08:36;;;;;;;56.65;23.20;;;;;;;8.48;100.00;101154.56;5003751;28;20033;-73
2022/12/30 07:11:02;;;;;;;59.15;23.60;;;;;;;8.48;100.00;101151.97;5009864;28;20022;-73
2022/12/30 07:13:28;;;;;;;55.17;25.42;;;;;;;8.49;100.00;101158.81;4997410;28;20084;-73
2022/12/30 07:15:54;;;;;;;56.47;25.75;;;;;;;8.51;100.00;101159.50;5000380;28;21758;-74
2022/12/30 07:18:19;;;;;;;52.15;25.17;;;;;;;8.52;100.00;101166.34;4996219;28;21864;-73
2022/12/30 07:20:44;;;;;;;64.90;26.20;;;;;;;8.56;100.00;101167.78;5000166;28;20029;-73
2022/12/30 07:23:10;;;;;;;86.05;27.83;;;;;;;8.62;100.00;101180.31;4998015;28;20630;-73
2022/12/30 07:25:35;;;;;;;57.58;26.27;;;;;;;8.63;100.00;101179.34;4996060;28;20040;-73
2022/12/30 07:28:03;;;;;;;57.03;25.30;;;;;;;8.63;100.00;101171.56;4998047;28;21191;-73
2022/12/30 07:30:31;;;;;;;81.43;28.52;;;;;;;8.66;100.00;101173.94;5001033;28;20038;-73
2022/12/30 07:32:57;;;;;;;73.53;27.40;;;;;;;8.70;100.00;101180.56;4996409;28;20026;-73
2022/12/30 07:35:23;;;;;;;68.60;27.20;;;;;;;8.70;100.00;101177.97;4988758;28;20036;-73
2022/12/30 07:37:51;;;;;;;66.03;26.35;;;;;;;8.71;100.00;101177.03;4998482;28;21190;-73
2022/12/30 07:40:17;;;;;;;55.05;26.30;;;;;;;8.71;100.00;101184.81;4998783;28;20045;-73
2022/12/30 07:42:43;;;;;;;58.05;27.08;;;;;;;8.69;100.00;101183.28;4996459;28;20057;-73
2022/12/30 07:45:09;;;;;;;75.75;28.08;;;;;;;8.72;100.00;101191.66;4999119;28;20137;-73
2022/12/30 07:47:34;;;;;;;92.93;26.65;;;;;;;8.75;100.00;101188.00;4995423;28;20108;-73
2022/12/30 07:50:01;;;;;;;55.35;23.85;;;;;;;8.73;100.00;101197.69;4999017;28;20038;-73
2022/12/30 07:52:27;;;;;;;66.75;24.98;;;;;;;8.72;100.00;101194.25;4994156;28;20117;-72
2022/12/30 07:54:52;;;;;;;44.55;22.95;;;;;;;8.72;100.00;101206.44;5002665;28;20599;-72
2022/12/30 07:57:18;;;;;;;58.53;24.80;;;;;;;8.72;100.00;101204.66;4994483;28;20058;-72
2022/12/30 07:59:43;;;;;;;79.28;25.08;;;;;;;8.74;100.00;101205.38;4996383;28;20069;-73
2022/12/30 08:02:10;;;;;;;85.60;24.75;;;;;;;8.76;100.00;101211.28;4997087;28;20520;-73
2022/12/30 08:04:36;;;;;;;57.28;25.70;;;;;;;8.75;100.00;101209.63;5005374;28;20116;-73
2022/12/30 08:07:01;;;;;;;82.05;29.00;;;;;;;8.75;100.00;101208.78;5010702;28;20113;-72
2022/12/30 08:09:27;;;;;;;78.43;33.90;;;;;;;8.76;100.00;101211.28;5009416;28;20032;-73
2022/12/30 08:11:52;;;;;;;72.15;29.40;;;;;;;8.79;100.00;101223.22;5014246;28;20544;-72
2022/12/30 08:14:18;;;;;;;72.13;29.08;;;;;;;8.80;100.00;101228.31;5009607;28;20030;-72
2022/12/30 08:16:43;;;;;;;66.70;28.80;;;;;;;8.81;100.00;101224.75;5015205;28;20032;-73
2022/12/30 08:19:09;;;;;;;61.28;28.23;;;;;;;8.82;100.00;101235.97;5010068;28;20041;-73
2022/12/30 08:21:34;;;;;;;83.78;29.17;;;;;;;8.84;100.00;101229.72;5007107;28;20113;-73
2022/12/30 08:23:59;;;;;;;100.63;29.65;;;;;;;8.88;100.00;101238.13;5008860;28;20029;-72
2022/12/30 08:26:25;;;;;;;67.78;29.17;;;;;;;8.89;100.00;101245.81;5009373;28;20513;-73
2022/12/30 08:28:53;;;;;;;80.50;30.15;;;;;;;8.87;100.00;101249.47;5009493;28;20055;-73
2022/12/30 08:31:22;;;;;;;112.15;31.42;;;;;;;8.89;100.00;101247.59;5013735;28;20197;-72
2022/12/30 08:33:48;;;;;;;124.72;30.05;;;;;;;8.91;100.00;101246.53;5008406;28;20442;-73
2022/12/30 08:36:16;;;;;;;60.50;26.05;;;;;;;8.89;100.00;101251.00;5005712;28;20045;-73
2022/12/30 08:38:45;;;;;;;69.18;27.08;;;;;;;8.91;100.00;101250.91;5004016;28;20084;-72
2022/12/30 08:41:20;;;;;;;54.53;22.92;;;;;;;8.91;100.00;101249.13;5015143;28;20037;-72
2022/12/30 08:43:46;;;;;;;52.55;22.35;;;;;;;8.91;100.00;101262.13;5003701;28;20033;-73
2022/12/30 08:46:13;;;;;;;53.20;21.85;;;;;;;8.86;100.00;101256.44;5011654;28;20374;-73
2022/12/30 08:48:38;;;;;;;52.15;19.92;;;;;;;8.84;100.00;101260.91;5011579;28;20030;-73
2022/12/30 08:51:05;;;;;;;45.42;19.33;;;;;;;8.83;100.00;101259.25;5013771;28;20095;-73
2022/12/30 08:53:31;;;;;;;48.28;20.98;;;;;;;8.81;100.00;101261.13;5009678;28;20022;-73
2022/12/30 08:56:02;;;;;;;78.28;29.38;;;;;;;8.81;100.00;101270.72;5016028;28;20037;-73
2022/12/30 08:58:28;;;;;;;85.00;34.47;;;;;;;8.83;100.00;101271.41;5009517;28;20037;-73
2022/12/30 09:00:53;;;;;;;73.78;30.35;;;;;;;8.84;100.00;101273.91;5014250;28;20473;-73
2022/12/30 09:03:19;;;;;;;92.32;37.95;;;;;;;8.84;100.00;101268.72;5013054;28;20034;-72
2022/12/30 09:05:49;;;;;;;96.30;41.22;;;;;;;8.85;100.00;101282.53;5014244;28;20048;-73
2022/12/30 09:08:15;;;;;;;91.68;40.72;;;;;;;8.86;100.00;101277.22;5005930;28;20446;-73
2022/12/30 09:10:40;;;;;;;97.00;41.55;;;;;;;8.91;100.00;101282.91;5007286;28;20060;-72
2022/12/30 09:13:06;;;;;;;67.88;29.70;;;;;;;8.91;100.00;101282.91;5013092;28;20113;-72
2022/12/30 09:15:31;;;;;;;77.70;34.60;;;;;;;8.93;100.00;101278.44;5011606;28;20037;-72
2022/12/30 09:17:56;;;;;;;67.30;32.30;;;;;;;8.98;100.00;101268.50;5013327;28;20026;-72
2022/12/30 09:20:22;;;;;;;66.47;31.23;;;;;;;9.06;100.00;101270.50;5013824;28;20436;-73
2022/12/30 09:22:47;;;;;;;70.63;31.23;;;;;;;9.11;100.00;101275.38;5017972;28;20038;-72
2022/12/30 09:25:13;;;;;;;64.50;30.85;;;;;;;9.12;100.00;101280.47;5013671;28;20025;-72
2022/12/30 09:27:39;;;;;;;61.85;30.45;;;;;;;9.16;100.00;101281.06;5012394;28;20111;-72
2022/12/30 09:30:05;;;;;;;65.55;30.88;;;;;;;9.19;100.00;101286.03;5009591;28;20494;-72
2022/12/30 09:32:31;;;;;;;63.78;30.83;;;;;;;9.24;100.00;101276.94;5011877;28;20067;-72
2022/12/30 09:34:56;;;;;;;66.65;32.90;;;;;;;9.27;100.00;101270.69;5011382;28;20034;-72
2022/12/30 09:37:22;;;;;;;60.22;31.02;;;;;;;9.29;100.00;101277.41;5014526;28;20100;-73
2022/12/30 09:39:47;;;;;;;65.28;32.67;;;;;;;9.32;100.00;101278.97;5016225;28;20034;-72
2022/12/30 09:45:21;;;;;;;72.03;35.72;;;;;;;9.39;100.00;101271.53;5014444;28;20037;-72
2022/12/30 09:47:53;;;;;;;70.00;33.55;;;;;;;9.45;100.00;101271.84;5013397;28;20036;-72
2022/12/30 09:50:29;;;;;;;68.78;32.80;;;;;;;9.51;100.00;101281.78;5015605;28;20033;-72
2022/12/30 09:53:11;;;;;;;62.90;33.15;;;;;;;9.53;100.00;101279.06;5014050;28;20038;-73
2022/12/30 09:55:51;;;;;;;72.20;33.17;;;;;;;9.54;100.00;101275.53;5010860;28;20132;-72
2022/12/30 09:58:26;;;;;;;76.22;32.25;;;;;;;9.53;100.00;101279.91;5009567;28;20465;-71
2022/12/30 10:00:53;;;;;;;82.40;31.95;;;;;;;9.54;100.00;101275.53;5010389;28;20029;-72
2022/12/30 10:03:27;;;;;;;78.70;33.45;;;;;;;9.55;100.00;101272.81;5010995;28;20034;-72
2022/12/30 10:06:01;;;;;;;98.68;44.17;;;;;;;9.57;100.00;101270.91;5011071;28;20040;-72
2022/12/30 10:08:27;;;;;;;74.25;33.33;;;;;;;9.58;100.00;101269.16;5014358;28;20032;-72
2022/12/30 10:11:13;;;;;;;86.53;38.22;;;;;;;9.57;100.00;101276.13;5016344;28;20022;-72
2022/12/30 10:13:55;;;;;;;89.15;40.08;;;;;;;9.59;100.00;101274.22;5017240;28;20041;-72
2022/12/30 10:16:59;;;;;;;101.95;41.65;;;;;;;9.62;100.00;101268.78;5012237;28;20034;-71
2022/12/30 10:19:51;;;;;;;90.47;41.67;;;;;;;9.58;100.00;101259.56;5008457;28;20119;-71
2022/12/30 10:22:30;;;;;;;94.00;42.30;;;;;;;9.58;100.00;101269.97;5015459;28;20034;-71
2022/12/30 10:24:58;;;;;;;78.40;38.17;;;;;;;9.58;100.00;101266.53;5011882;28;20183;-71
2022/12/30 10:27:45;;;;;;;64.78;32.33;;;;;;;9.51;100.00;101258.38;5011820;28;20041;-71
2022/12/30 10:30:18;;;;;;;59.53;30.13;;;;;;;9.51;100.00;101260.97;5011151;28;20084;-71
2022/12/30 10:32:54;;;;;;;52.63;26.45;;;;;;;9.50;100.00;101261.94;5012710;28;20162;-71
2022/12/30 10:35:24;;;;;;;;;;;;;;;9.42;100.00;101263.50;5011296;28;20095;-72
2022/12/30 10:37:57;;;;;;;45.28;23.02;;;;;;;9.41;100.00;101257.47;5012200;28;20036;-71
2022/12/30 10:40:28;;;;;;;46.50;23.88;;;;;;;9.39;100.00;101258.53;5011582;28;20132;-72
2022/12/30 10:43:02;;;;;;;47.17;25.15;;;;;;;9.36;100.00;101259.59;5014050;28;20030;-72
2022/12/30 10:45:30;;;;;;;43.85;24.67;;;;;;;9.35;100.00;101246.69;5015897;28;20198;-71
2022/12/30 10:48:20;;;;;;;47.78;25.85;;;;;;;9.35;100.00;101250.13;5018416;28;20030;-72
2022/12/30 10:50:48;;;;;;;45.72;26.38;;;;;;;9.35;100.00;101244.91;5005356;28;20037;-72
2022/12/30 10:53:22;;;;;;;49.97;26.42;;;;;;;9.40;100.00;101248.00;5018214;28;20025;-73
2022/12/30 10:55:47;;;;;;;47.38;27.30;;;;;;;9.41;100.00;101248.84;5010316;28;20481;-72
2022/12/30 10:58:33;;;;;;;50.72;26.20;;;;;;;9.43;100.00;101244.34;5011628;28;20060;-72
2022/12/30 11:01:00;;;;;;;40.90;22.55;;;;;;;9.34;100.00;101243.28;5005506;28;20064;-72
2022/12/30 11:03:32;;;;;;;44.08;22.92;;;;;;;9.31;100.00;101248.69;5011421;28;20041;-73
2022/12/30 11:06:13;;;;;;;43.15;20.73;;;;;;;9.27;100.00;101249.88;5007026;28;20080;-72
2022/12/30 11:08:40;;;;;;;36.03;19.98;;;;;;;9.22;100.00;101247.63;5007363;28;20068;-72
2022/12/30 11:11:08;;;;;;;38.05;21.50;;;;;;;9.22;100.00;101246.78;5017557;28;20041;-71
2022/12/30 11:16:27;;;;;;;43.55;21.35;;;;;;;9.25;100.00;101249.16;5012895;28;20125;-72
2022/12/30 11:18:55;;;;;;;40.47;21.35;;;;;;;9.29;100.00;101241.00;5008005;28;20172;-72
2022/12/30 11:21:30;;;;;;;47.85;23.40;;;;;;;9.29;100.00;101229.78;5013558;28;20041;-72
2022/12/30 11:24:01;;;;;;;45.13;22.55;;;;;;;9.32;100.00;101243.38;5020523;28;20032;-71
2022/12/30 11:26:30;;;;;;;47.10;22.13;;;;;;;9.36;100.00;101241.38;5011814;28;20042;-71
2022/12/30 11:29:14;;;;;;;42.63;22.73;;;;;;;9.35;100.00;101239.72;5010458;28;20013;-72
2022/12/30 11:31:42;;;;;;;37.83;21.42;;;;;;;9.36;100.00;101236.19;5006841;28;20061;-71
2022/12/30 11:34:26;;;;;;;36.63;22.00;;;;;;;9.35;100.00;101229.31;5014078;28;20057;-71
2022/12/30 11:36:51;;;;;;;43.45;22.35;;;;;;;9.39;100.00;101233.34;5007490;28;20034;-71
2022/12/30 11:39:23;;;;;;;41.75;21.73;;;;;;;9.41;100.00;101238.44;5009260;28;20033;-71
2022/12/30 11:41:53;;;;;;;42.17;22.67;;;;;;;9.44;100.00;101218.22;5007580;28;20121;-72
2022/12/30 11:44:24;;;;;;;38.17;20.83;;;;;;;9.45;100.00;101225.03;5013124;28;20455;-71
2022/12/30 11:46:52;;;;;;;41.30;23.58;;;;;;;9.46;100.00;101220.66;5013808;28;20034;-72
2022/12/30 11:49:48;;;;;;;45.70;21.85;;;;;;;9.45;100.00;101227.63;5007961;28;20076;-71
2022/12/30 11:52:25;;;;;;;36.55;21.23;;;;;;;9.45;100.00;101225.03;5003281;28;20068;-72
2022/12/30 11:54:55;;;;;;;39.78;22.40;;;;;;;9.46;100.00;101218.88;5008590;28;20060;-72
2022/12/30 11:57:30;;;;;;;45.22;22.83;;;;;;;9.43;100.00;101221.75;5007759;28;20099;-72
2022/12/30 12:00:02;;;;;;;41.92;22.92;;;;;;;9.40;100.00;101222.00;5010860;28;20021;-71
2022/12/30 12:02:35;;;;;;;38.28;21.13;;;;;;;9.40;100.00;101221.16;5010068;28;20183;-72
2022/12/30 12:05:01;;;;;;;34.00;19.50;;;;;;;9.39;100.00;101212.53;5011139;28;20028;-72
2022/12/30 12:07:43;;;;;;;43.35;21.08;;;;;;;9.38;100.00;101210.06;5007868;28;20125;-72
2022/12/30 12:10:09;;;;;;;38.72;21.23;;;;;;;9.43;100.00;101216.56;5012201;28;20123;-72
2022/12/30 12:12:38;;;;;;;37.80;21.40;;;;;;;9.43;100.00;101211.34;5012318;28;20173;-72
2022/12/30 12:15:28;;;;;;;38.05;21.10;;;;;;;9.48;100.00;101219.59;5012186;28;20172;-72
2022/12/30 12:18:01;;;;;;;46.60;23.95;;;;;;;9.49;100.00;101216.06;5005277;28;20057;-72